sensor_id;sensor_type;location;lat;lon;timestamp;P1;durP1;ratioP1;P2;durP2;ratioP2
42000;SDS011;27689;48.390;10.856;2023-11-19T00:00:18;2.63;;;2.00;;
42000;SDS011;27689;48.390;10.856;2023-11-19T00:03:02;5.25;;;2.35;;
42000;SDS011;27689;48.390;10.856;2023-11-19T00:05:46;2.25;;;2.05;;
42000;SDS011;27689;48.390;10.856;2023-11-19T00:08:31;3.63;;;2.25;;
42000;SDS011;27689;48.390;10.856;2023-11-19T00:11:15;3.33;;;2.40;;
42000;SDS011;27689;48.390;10.856;2023-11-19T00:13:59;4.50;;;2.15;;
42000;SDS011;27689;48.390;10.856;2023-11-19T00:16:43;3.27;;;2.53;;
42000;SDS011;27689;48.390;10.856;2023-11-19T00:19:27;2.88;;;2.00;;
42000;SDS011;27689;48.390;10.856;2023-11-19T00:22:11;5.60;;;2.10;;
42000;SDS011;27689;48.390;10.856;2023-11-19T00:24:55;3.00;;;2.37;;
42000;SDS011;27689;48.390;10.856;2023-11-19T00:27:40;4.15;;;2.47;;
42000;SDS011;27689;48.390;10.856;2023-11-19T00:30:24;3.50;;;2.47;;
42000;SDS011;27689;48.390;10.856;2023-11-19T00:33:09;2.63;;;2.28;;
42000;SDS011;27689;48.390;10.856;2023-11-19T00:35:53;2.58;;;2.15;;
42000;SDS011;27689;48.390;10.856;2023-11-19T00:38:36;4.10;;;2.70;;
42000;SDS011;27689;48.390;10.856;2023-11-19T00:41:20;3.25;;;2.22;;
42000;SDS011;27689;48.390;10.856;2023-11-19T00:44:05;2.97;;;2.40;;
42000;SDS011;27689;48.390;10.856;2023-11-19T00:46:49;3.63;;;2.60;;
42000;SDS011;27689;48.390;10.856;2023-11-19T00:49:33;4.07;;;2.55;;
42000;SDS011;27689;48.390;10.856;2023-11-19T00:52:17;4.60;;;2.30;;
42000;SDS011;27689;48.390;10.856;2023-11-19T00:55:02;3.13;;;2.13;;
42000;SDS011;27689;48.390;10.856;2023-11-19T00:57:46;3.30;;;2.00;;
42000;SDS011;27689;48.390;10.856;2023-11-19T01:00:30;3.05;;;2.38;;
42000;SDS011;27689;48.390;10.856;2023-11-19T01:03:16;3.45;;;2.13;;
42000;SDS011;27689;48.390;10.856;2023-11-19T01:06:00;4.30;;;2.30;;
42000;SDS011;27689;48.390;10.856;2023-11-19T01:08:46;2.72;;;2.10;;
42000;SDS011;27689;48.390;10.856;2023-11-19T01:11:30;1.80;;;1.60;;
42000;SDS011;27689;48.390;10.856;2023-11-19T01:14:14;3.65;;;2.30;;
42000;SDS011;27689;48.390;10.856;2023-11-19T01:16:58;2.57;;;1.90;;
42000;SDS011;27689;48.390;10.856;2023-11-19T01:19:42;2.80;;;1.90;;
42000;SDS011;27689;48.390;10.856;2023-11-19T01:22:26;3.67;;;2.00;;
42000;SDS011;27689;48.390;10.856;2023-11-19T01:25:10;3.70;;;1.60;;
42000;SDS011;27689;48.390;10.856;2023-11-19T01:27:54;3.27;;;2.27;;
42000;SDS011;27689;48.390;10.856;2023-11-19T01:30:37;2.93;;;2.20;;
42000;SDS011;27689;48.390;10.856;2023-11-19T01:33:21;2.45;;;1.80;;
42000;SDS011;27689;48.390;10.856;2023-11-19T01:36:05;2.22;;;1.85;;
42000;SDS011;27689;48.390;10.856;2023-11-19T01:38:49;2.15;;;1.85;;
42000;SDS011;27689;48.390;10.856;2023-11-19T01:41:34;3.42;;;2.22;;
42000;SDS011;27689;48.390;10.856;2023-11-19T01:44:19;3.33;;;2.10;;
42000;SDS011;27689;48.390;10.856;2023-11-19T01:47:03;1.90;;;1.80;;
42000;SDS011;27689;48.390;10.856;2023-11-19T01:49:48;2.67;;;1.90;;
42000;SDS011;27689;48.390;10.856;2023-11-19T01:52:32;2.58;;;2.05;;
42000;SDS011;27689;48.390;10.856;2023-11-19T01:55:20;3.65;;;2.08;;
42000;SDS011;27689;48.390;10.856;2023-11-19T02:00:49;2.90;;;1.77;;
42000;SDS011;27689;48.390;10.856;2023-11-19T02:03:33;2.45;;;1.70;;
42000;SDS011;27689;48.390;10.856;2023-11-19T02:06:18;3.35;;;2.20;;
42000;SDS011;27689;48.390;10.856;2023-11-19T02:09:02;2.40;;;1.90;;
42000;SDS011;27689;48.390;10.856;2023-11-19T02:11:51;2.92;;;2.05;;
42000;SDS011;27689;48.390;10.856;2023-11-19T02:14:35;2.90;;;2.15;;
42000;SDS011;27689;48.390;10.856;2023-11-19T02:17:25;2.60;;;2.07;;
42000;SDS011;27689;48.390;10.856;2023-11-19T02:20:15;3.05;;;1.95;;
42000;SDS011;27689;48.390;10.856;2023-11-19T02:22:59;3.40;;;2.40;;
42000;SDS011;27689;48.390;10.856;2023-11-19T02:25:42;2.80;;;2.00;;
42000;SDS011;27689;48.390;10.856;2023-11-19T02:28:36;2.97;;;2.00;;
42000;SDS011;27689;48.390;10.856;2023-11-19T02:31:20;3.17;;;1.98;;
42000;SDS011;27689;48.390;10.856;2023-11-19T02:34:06;2.90;;;2.28;;
42000;SDS011;27689;48.390;10.856;2023-11-19T02:36:50;3.10;;;2.53;;
42000;SDS011;27689;48.390;10.856;2023-11-19T02:39:34;2.63;;;2.30;;
42000;SDS011;27689;48.390;10.856;2023-11-19T02:42:18;4.28;;;2.35;;
42000;SDS011;27689;48.390;10.856;2023-11-19T02:45:02;3.20;;;2.60;;
42000;SDS011;27689;48.390;10.856;2023-11-19T02:47:49;2.80;;;2.47;;
42000;SDS011;27689;48.390;10.856;2023-11-19T02:50:34;2.85;;;2.20;;
42000;SDS011;27689;48.390;10.856;2023-11-19T02:53:18;2.77;;;2.40;;
42000;SDS011;27689;48.390;10.856;2023-11-19T02:56:06;3.72;;;2.45;;
42000;SDS011;27689;48.390;10.856;2023-11-19T02:58:58;4.05;;;2.58;;
42000;SDS011;27689;48.390;10.856;2023-11-19T03:01:43;3.88;;;2.80;;
42000;SDS011;27689;48.390;10.856;2023-11-19T03:04:33;2.78;;;2.47;;
42000;SDS011;27689;48.390;10.856;2023-11-19T03:07:17;3.72;;;2.70;;
42000;SDS011;27689;48.390;10.856;2023-11-19T03:10:01;4.00;;;2.78;;
42000;SDS011;27689;48.390;10.856;2023-11-19T03:12:45;3.93;;;2.90;;
42000;SDS011;27689;48.390;10.856;2023-11-19T03:15:29;2.40;;;2.08;;
42000;SDS011;27689;48.390;10.856;2023-11-19T03:18:13;3.17;;;2.40;;
42000;SDS011;27689;48.390;10.856;2023-11-19T03:20:57;2.15;;;1.90;;
42000;SDS011;27689;48.390;10.856;2023-11-19T03:23:42;2.08;;;1.88;;
42000;SDS011;27689;48.390;10.856;2023-11-19T03:26:27;3.22;;;2.30;;
42000;SDS011;27689;48.390;10.856;2023-11-19T03:29:11;2.35;;;1.98;;
42000;SDS011;27689;48.390;10.856;2023-11-19T03:31:54;2.20;;;1.90;;
42000;SDS011;27689;48.390;10.856;2023-11-19T03:34:38;1.88;;;1.40;;
42000;SDS011;27689;48.390;10.856;2023-11-19T03:37:24;3.28;;;1.80;;
42000;SDS011;27689;48.390;10.856;2023-11-19T03:40:09;2.33;;;1.60;;
42000;SDS011;27689;48.390;10.856;2023-11-19T03:42:56;2.00;;;1.58;;
42000;SDS011;27689;48.390;10.856;2023-11-19T03:45:43;1.73;;;1.63;;
42000;SDS011;27689;48.390;10.856;2023-11-19T03:48:27;5.40;;;3.53;;
42000;SDS011;27689;48.390;10.856;2023-11-19T03:51:11;2.85;;;2.35;;
42000;SDS011;27689;48.390;10.856;2023-11-19T03:53:58;1.95;;;1.50;;
42000;SDS011;27689;48.390;10.856;2023-11-19T03:56:42;2.00;;;1.60;;
42000;SDS011;27689;48.390;10.856;2023-11-19T03:59:26;2.97;;;1.80;;
42000;SDS011;27689;48.390;10.856;2023-11-19T04:02:10;2.17;;;1.95;;
42000;SDS011;27689;48.390;10.856;2023-11-19T04:04:54;2.08;;;1.40;;
42000;SDS011;27689;48.390;10.856;2023-11-19T04:07:39;2.10;;;1.67;;
42000;SDS011;27689;48.390;10.856;2023-11-19T04:10:23;1.75;;;1.55;;
42000;SDS011;27689;48.390;10.856;2023-11-19T04:13:07;1.80;;;1.60;;
42000;SDS011;27689;48.390;10.856;2023-11-19T04:15:51;1.80;;;1.60;;
42000;SDS011;27689;48.390;10.856;2023-11-19T04:18:34;2.55;;;1.80;;
42000;SDS011;27689;48.390;10.856;2023-11-19T04:21:18;1.48;;;1.38;;
42000;SDS011;27689;48.390;10.856;2023-11-19T04:24:02;4.43;;;1.60;;
42000;SDS011;27689;48.390;10.856;2023-11-19T04:26:47;2.72;;;1.40;;
42000;SDS011;27689;48.390;10.856;2023-11-19T04:29:31;1.77;;;1.58;;
42000;SDS011;27689;48.390;10.856;2023-11-19T04:32:15;2.85;;;1.40;;
42000;SDS011;27689;48.390;10.856;2023-11-19T04:34:59;1.92;;;1.50;;
42000;SDS011;27689;48.390;10.856;2023-11-19T04:37:43;1.55;;;1.30;;
42000;SDS011;27689;48.390;10.856;2023-11-19T04:40:27;1.60;;;1.33;;
42000;SDS011;27689;48.390;10.856;2023-11-19T04:43:11;2.50;;;1.53;;
42000;SDS011;27689;48.390;10.856;2023-11-19T04:48:40;2.25;;;1.70;;
42000;SDS011;27689;48.390;10.856;2023-11-19T04:51:24;4.65;;;1.63;;
42000;SDS011;27689;48.390;10.856;2023-11-19T04:54:08;1.90;;;1.47;;
42000;SDS011;27689;48.390;10.856;2023-11-19T04:56:52;2.13;;;1.30;;
42000;SDS011;27689;48.390;10.856;2023-11-19T04:59:36;1.60;;;1.15;;
42000;SDS011;27689;48.390;10.856;2023-11-19T05:02:21;2.08;;;1.40;;
42000;SDS011;27689;48.390;10.856;2023-11-19T05:05:05;2.20;;;1.90;;
42000;SDS011;27689;48.390;10.856;2023-11-19T05:07:49;3.60;;;1.53;;
42000;SDS011;27689;48.390;10.856;2023-11-19T05:10:33;1.80;;;1.70;;
42000;SDS011;27689;48.390;10.856;2023-11-19T05:13:18;2.28;;;2.00;;
42000;SDS011;27689;48.390;10.856;2023-11-19T05:16:02;2.28;;;1.98;;
42000;SDS011;27689;48.390;10.856;2023-11-19T05:18:46;5.63;;;2.13;;
42000;SDS011;27689;48.390;10.856;2023-11-19T05:21:30;3.40;;;2.63;;
42000;SDS011;27689;48.390;10.856;2023-11-19T05:24:14;4.40;;;2.10;;
42000;SDS011;27689;48.390;10.856;2023-11-19T05:26:58;2.97;;;2.33;;
42000;SDS011;27689;48.390;10.856;2023-11-19T05:29:42;3.10;;;2.40;;
42000;SDS011;27689;48.390;10.856;2023-11-19T05:35:11;2.72;;;2.10;;
42000;SDS011;27689;48.390;10.856;2023-11-19T05:37:55;3.85;;;2.10;;
42000;SDS011;27689;48.390;10.856;2023-11-19T05:40:40;2.75;;;2.08;;
42000;SDS011;27689;48.390;10.856;2023-11-19T05:43:25;2.67;;;2.25;;
42000;SDS011;27689;48.390;10.856;2023-11-19T05:46:09;2.93;;;2.20;;
42000;SDS011;27689;48.390;10.856;2023-11-19T05:48:53;2.55;;;2.10;;
42000;SDS011;27689;48.390;10.856;2023-11-19T05:51:37;2.65;;;2.17;;
42000;SDS011;27689;48.390;10.856;2023-11-19T05:54:22;2.85;;;2.28;;
42000;SDS011;27689;48.390;10.856;2023-11-19T05:57:06;4.10;;;2.40;;
42000;SDS011;27689;48.390;10.856;2023-11-19T05:59:52;3.72;;;2.65;;
42000;SDS011;27689;48.390;10.856;2023-11-19T06:02:37;3.85;;;3.00;;
42000;SDS011;27689;48.390;10.856;2023-11-19T06:08:06;3.10;;;2.65;;
42000;SDS011;27689;48.390;10.856;2023-11-19T06:10:50;3.83;;;2.67;;
42000;SDS011;27689;48.390;10.856;2023-11-19T06:13:34;5.43;;;2.67;;
42000;SDS011;27689;48.390;10.856;2023-11-19T06:16:19;3.00;;;2.60;;
42000;SDS011;27689;48.390;10.856;2023-11-19T06:19:03;3.35;;;2.40;;
42000;SDS011;27689;48.390;10.856;2023-11-19T06:21:46;3.20;;;2.40;;
42000;SDS011;27689;48.390;10.856;2023-11-19T06:24:30;3.38;;;2.67;;
42000;SDS011;27689;48.390;10.856;2023-11-19T06:27:14;2.35;;;2.15;;
42000;SDS011;27689;48.390;10.856;2023-11-19T06:29:58;2.67;;;2.22;;
42000;SDS011;27689;48.390;10.856;2023-11-19T06:32:42;3.40;;;2.50;;
42000;SDS011;27689;48.390;10.856;2023-11-19T06:35:26;2.65;;;2.22;;
42000;SDS011;27689;48.390;10.856;2023-11-19T06:38:12;2.65;;;2.17;;
42000;SDS011;27689;48.390;10.856;2023-11-19T06:40:57;2.53;;;2.03;;
42000;SDS011;27689;48.390;10.856;2023-11-19T06:43:41;2.65;;;2.03;;
42000;SDS011;27689;48.390;10.856;2023-11-19T06:46:25;3.07;;;2.17;;
42000;SDS011;27689;48.390;10.856;2023-11-19T06:49:09;4.35;;;2.15;;
42000;SDS011;27689;48.390;10.856;2023-11-19T06:51:53;2.80;;;2.13;;
42000;SDS011;27689;48.390;10.856;2023-11-19T06:54:40;5.03;;;2.00;;
42000;SDS011;27689;48.390;10.856;2023-11-19T06:57:24;2.30;;;2.00;;
42000;SDS011;27689;48.390;10.856;2023-11-19T07:00:08;2.33;;;2.00;;
42000;SDS011;27689;48.390;10.856;2023-11-19T07:02:54;2.00;;;1.75;;
42000;SDS011;27689;48.390;10.856;2023-11-19T07:05:38;2.85;;;1.88;;
42000;SDS011;27689;48.390;10.856;2023-11-19T07:08:22;3.10;;;2.07;;
42000;SDS011;27689;48.390;10.856;2023-11-19T07:11:06;2.95;;;1.77;;
42000;SDS011;27689;48.390;10.856;2023-11-19T07:13:53;2.75;;;2.08;;
42000;SDS011;27689;48.390;10.856;2023-11-19T07:16:37;1.80;;;1.50;;
42000;SDS011;27689;48.390;10.856;2023-11-19T07:19:22;1.52;;;1.40;;
42000;SDS011;27689;48.390;10.856;2023-11-19T07:22:06;2.40;;;1.53;;
42000;SDS011;27689;48.390;10.856;2023-11-19T07:24:51;1.77;;;1.35;;
42000;SDS011;27689;48.390;10.856;2023-11-19T07:27:35;2.25;;;1.88;;
42000;SDS011;27689;48.390;10.856;2023-11-19T07:30:19;2.03;;;1.70;;
42000;SDS011;27689;48.390;10.856;2023-11-19T07:33:03;2.97;;;2.30;;
42000;SDS011;27689;48.390;10.856;2023-11-19T07:35:47;2.20;;;1.60;;
42000;SDS011;27689;48.390;10.856;2023-11-19T07:38:32;1.80;;;1.40;;
42000;SDS011;27689;48.390;10.856;2023-11-19T07:41:16;2.17;;;1.80;;
42000;SDS011;27689;48.390;10.856;2023-11-19T07:44:00;1.70;;;1.30;;
42000;SDS011;27689;48.390;10.856;2023-11-19T07:46:44;2.78;;;1.30;;
42000;SDS011;27689;48.390;10.856;2023-11-19T07:49:28;1.75;;;1.42;;
42000;SDS011;27689;48.390;10.856;2023-11-19T07:52:12;1.37;;;1.17;;
42000;SDS011;27689;48.390;10.856;2023-11-19T07:54:56;2.45;;;1.35;;
42000;SDS011;27689;48.390;10.856;2023-11-19T07:57:40;1.07;;;0.90;;
42000;SDS011;27689;48.390;10.856;2023-11-19T08:00:24;1.42;;;1.17;;
42000;SDS011;27689;48.390;10.856;2023-11-19T08:03:08;2.05;;;1.40;;
42000;SDS011;27689;48.390;10.856;2023-11-19T08:05:54;1.63;;;1.20;;
42000;SDS011;27689;48.390;10.856;2023-11-19T08:08:39;1.50;;;1.05;;
42000;SDS011;27689;48.390;10.856;2023-11-19T08:11:23;0.88;;;0.88;;
42000;SDS011;27689;48.390;10.856;2023-11-19T08:14:08;1.45;;;1.25;;
42000;SDS011;27689;48.390;10.856;2023-11-19T08:16:52;2.08;;;1.20;;
42000;SDS011;27689;48.390;10.856;2023-11-19T08:19:36;1.40;;;1.02;;
42000;SDS011;27689;48.390;10.856;2023-11-19T08:22:20;2.90;;;1.10;;
42000;SDS011;27689;48.390;10.856;2023-11-19T08:25:05;1.48;;;1.00;;
42000;SDS011;27689;48.390;10.856;2023-11-19T08:27:50;1.33;;;1.00;;
42000;SDS011;27689;48.390;10.856;2023-11-19T08:30:34;1.73;;;0.88;;
42000;SDS011;27689;48.390;10.856;2023-11-19T08:33:18;1.85;;;1.10;;
42000;SDS011;27689;48.390;10.856;2023-11-19T08:36:02;1.30;;;0.98;;
42000;SDS011;27689;48.390;10.856;2023-11-19T08:38:47;1.27;;;0.90;;
42000;SDS011;27689;48.390;10.856;2023-11-19T08:41:31;1.63;;;0.90;;
42000;SDS011;27689;48.390;10.856;2023-11-19T08:44:15;1.55;;;1.10;;
42000;SDS011;27689;48.390;10.856;2023-11-19T08:47:00;2.03;;;1.00;;
42000;SDS011;27689;48.390;10.856;2023-11-19T08:49:44;1.55;;;1.00;;
42000;SDS011;27689;48.390;10.856;2023-11-19T08:52:28;1.30;;;0.90;;
42000;SDS011;27689;48.390;10.856;2023-11-19T08:55:13;0.90;;;0.80;;
42000;SDS011;27689;48.390;10.856;2023-11-19T08:57:57;1.00;;;0.77;;
42000;SDS011;27689;48.390;10.856;2023-11-19T09:00:41;2.80;;;1.30;;
42000;SDS011;27689;48.390;10.856;2023-11-19T09:03:25;2.03;;;1.10;;
42000;SDS011;27689;48.390;10.856;2023-11-19T09:06:13;2.40;;;1.00;;
42000;SDS011;27689;48.390;10.856;2023-11-19T09:08:57;2.30;;;1.00;;
42000;SDS011;27689;48.390;10.856;2023-11-19T09:11:44;1.10;;;0.85;;
42000;SDS011;27689;48.390;10.856;2023-11-19T09:14:29;1.33;;;1.00;;
42000;SDS011;27689;48.390;10.856;2023-11-19T09:19:57;1.08;;;0.80;;
42000;SDS011;27689;48.390;10.856;2023-11-19T09:22:42;1.00;;;0.88;;
42000;SDS011;27689;48.390;10.856;2023-11-19T09:25:25;2.40;;;1.10;;
42000;SDS011;27689;48.390;10.856;2023-11-19T09:28:09;1.90;;;1.10;;
42000;SDS011;27689;48.390;10.856;2023-11-19T09:30:53;1.10;;;0.80;;
42000;SDS011;27689;48.390;10.856;2023-11-19T09:33:37;2.00;;;0.80;;
42000;SDS011;27689;48.390;10.856;2023-11-19T09:36:21;1.00;;;0.80;;
42000;SDS011;27689;48.390;10.856;2023-11-19T09:41:52;0.88;;;0.77;;
42000;SDS011;27689;48.390;10.856;2023-11-19T09:44:39;1.57;;;0.80;;
42000;SDS011;27689;48.390;10.856;2023-11-19T09:47:26;1.23;;;1.00;;
42000;SDS011;27689;48.390;10.856;2023-11-19T09:50:17;1.42;;;0.80;;
42000;SDS011;27689;48.390;10.856;2023-11-19T09:53:02;1.00;;;0.70;;
42000;SDS011;27689;48.390;10.856;2023-11-19T09:55:46;1.00;;;0.63;;
42000;SDS011;27689;48.390;10.856;2023-11-19T09:58:31;2.20;;;0.73;;
42000;SDS011;27689;48.390;10.856;2023-11-19T10:04:00;0.65;;;0.57;;
42000;SDS011;27689;48.390;10.856;2023-11-19T10:06:45;1.02;;;0.50;;
42000;SDS011;27689;48.390;10.856;2023-11-19T10:09:29;0.63;;;0.40;;
42000;SDS011;27689;48.390;10.856;2023-11-19T10:12:13;0.70;;;0.40;;
42000;SDS011;27689;48.390;10.856;2023-11-19T10:14:57;1.27;;;0.50;;
42000;SDS011;27689;48.390;10.856;2023-11-19T10:17:42;2.13;;;0.50;;
42000;SDS011;27689;48.390;10.856;2023-11-19T10:20:25;2.17;;;0.50;;
42000;SDS011;27689;48.390;10.856;2023-11-19T10:23:09;0.40;;;0.40;;
42000;SDS011;27689;48.390;10.856;2023-11-19T10:25:54;0.80;;;0.30;;
42000;SDS011;27689;48.390;10.856;2023-11-19T10:28:45;1.40;;;0.50;;
42000;SDS011;27689;48.390;10.856;2023-11-19T10:31:30;0.70;;;0.50;;
42000;SDS011;27689;48.390;10.856;2023-11-19T10:34:24;1.10;;;0.65;;
42000;SDS011;27689;48.390;10.856;2023-11-19T10:37:27;0.43;;;0.43;;
42000;SDS011;27689;48.390;10.856;2023-11-19T10:40:15;0.40;;;0.40;;
42000;SDS011;27689;48.390;10.856;2023-11-19T10:43:02;0.80;;;0.60;;
42000;SDS011;27689;48.390;10.856;2023-11-19T10:45:47;0.80;;;0.60;;
42000;SDS011;27689;48.390;10.856;2023-11-19T10:48:31;0.90;;;0.60;;
42000;SDS011;27689;48.390;10.856;2023-11-19T10:51:18;0.80;;;0.50;;
42000;SDS011;27689;48.390;10.856;2023-11-19T10:54:07;0.88;;;0.65;;
42000;SDS011;27689;48.390;10.856;2023-11-19T10:56:58;2.00;;;0.77;;
42000;SDS011;27689;48.390;10.856;2023-11-19T10:59:44;1.52;;;0.98;;
42000;SDS011;27689;48.390;10.856;2023-11-19T11:05:18;1.45;;;1.02;;
42000;SDS011;27689;48.390;10.856;2023-11-19T11:08:04;2.00;;;1.27;;
42000;SDS011;27689;48.390;10.856;2023-11-19T11:13:42;2.58;;;1.63;;
42000;SDS011;27689;48.390;10.856;2023-11-19T11:16:26;2.33;;;1.10;;
42000;SDS011;27689;48.390;10.856;2023-11-19T11:19:13;1.33;;;0.60;;
42000;SDS011;27689;48.390;10.856;2023-11-19T11:21:57;0.80;;;0.55;;
42000;SDS011;27689;48.390;10.856;2023-11-19T11:27:43;0.85;;;0.40;;
42000;SDS011;27689;48.390;10.856;2023-11-19T11:30:42;3.28;;;0.88;;
42000;SDS011;27689;48.390;10.856;2023-11-19T11:36:53;0.40;;;0.40;;
42000;SDS011;27689;48.390;10.856;2023-11-19T11:39:50;2.35;;;0.30;;
42000;SDS011;27689;48.390;10.856;2023-11-19T11:42:34;2.10;;;0.53;;
42000;SDS011;27689;48.390;10.856;2023-11-19T11:45:18;3.03;;;0.70;;
42000;SDS011;27689;48.390;10.856;2023-11-19T11:48:05;1.38;;;0.55;;
42000;SDS011;27689;48.390;10.856;2023-11-19T11:50:54;4.50;;;1.98;;
42000;SDS011;27689;48.390;10.856;2023-11-19T11:53:41;1.27;;;0.60;;
42000;SDS011;27689;48.390;10.856;2023-11-19T11:59:19;0.68;;;0.45;;
42000;SDS011;27689;48.390;10.856;2023-11-19T12:02:03;1.17;;;0.63;;
42000;SDS011;27689;48.390;10.856;2023-11-19T12:04:48;1.33;;;0.40;;
42000;SDS011;27689;48.390;10.856;2023-11-19T12:07:34;0.50;;;0.47;;
42000;SDS011;27689;48.390;10.856;2023-11-19T12:10:18;0.43;;;0.43;;
42000;SDS011;27689;48.390;10.856;2023-11-19T12:13:06;0.70;;;0.40;;
42000;SDS011;27689;48.390;10.856;2023-11-19T12:18:40;2.83;;;1.10;;
42000;SDS011;27689;48.390;10.856;2023-11-19T12:21:31;1.85;;;0.90;;
42000;SDS011;27689;48.390;10.856;2023-11-19T12:24:15;1.15;;;1.00;;
42000;SDS011;27689;48.390;10.856;2023-11-19T12:27:00;2.58;;;1.75;;
42000;SDS011;27689;48.390;10.856;2023-11-19T12:29:44;0.82;;;0.60;;
42000;SDS011;27689;48.390;10.856;2023-11-19T12:32:40;1.50;;;0.98;;
42000;SDS011;27689;48.390;10.856;2023-11-19T12:35:27;0.90;;;0.60;;
42000;SDS011;27689;48.390;10.856;2023-11-19T12:38:18;0.75;;;0.40;;
42000;SDS011;27689;48.390;10.856;2023-11-19T12:41:08;1.95;;;0.60;;
42000;SDS011;27689;48.390;10.856;2023-11-19T12:44:09;0.50;;;0.40;;
42000;SDS011;27689;48.390;10.856;2023-11-19T12:47:04;0.80;;;0.60;;
42000;SDS011;27689;48.390;10.856;2023-11-19T12:49:55;0.80;;;0.65;;
42000;SDS011;27689;48.390;10.856;2023-11-19T12:55:24;1.15;;;0.60;;
42000;SDS011;27689;48.390;10.856;2023-11-19T12:58:10;0.50;;;0.50;;
42000;SDS011;27689;48.390;10.856;2023-11-19T13:00:59;1.67;;;0.68;;
42000;SDS011;27689;48.390;10.856;2023-11-19T13:03:43;1.52;;;0.82;;
42000;SDS011;27689;48.390;10.856;2023-11-19T13:06:28;0.80;;;0.70;;
42000;SDS011;27689;48.390;10.856;2023-11-19T13:09:21;0.70;;;0.57;;
42000;SDS011;27689;48.390;10.856;2023-11-19T13:12:15;1.20;;;0.80;;
42000;SDS011;27689;48.390;10.856;2023-11-19T13:14:59;0.70;;;0.60;;
42000;SDS011;27689;48.390;10.856;2023-11-19T13:17:43;1.17;;;0.80;;
42000;SDS011;27689;48.390;10.856;2023-11-19T13:20:27;1.33;;;0.50;;
42000;SDS011;27689;48.390;10.856;2023-11-19T13:23:12;2.40;;;1.42;;
42000;SDS011;27689;48.390;10.856;2023-11-19T13:25:56;0.70;;;0.50;;
42000;SDS011;27689;48.390;10.856;2023-11-19T13:28:40;0.70;;;0.60;;
42000;SDS011;27689;48.390;10.856;2023-11-19T13:31:24;0.40;;;0.40;;
42000;SDS011;27689;48.390;10.856;2023-11-19T13:34:07;1.00;;;0.47;;
42000;SDS011;27689;48.390;10.856;2023-11-19T13:36:51;0.80;;;0.70;;
42000;SDS011;27689;48.390;10.856;2023-11-19T13:39:35;1.13;;;0.60;;
42000;SDS011;27689;48.390;10.856;2023-11-19T13:42:19;0.40;;;0.30;;
42000;SDS011;27689;48.390;10.856;2023-11-19T13:45:04;1.50;;;0.90;;
42000;SDS011;27689;48.390;10.856;2023-11-19T13:47:48;0.55;;;0.30;;
42000;SDS011;27689;48.390;10.856;2023-11-19T13:50:32;0.60;;;0.30;;
42000;SDS011;27689;48.390;10.856;2023-11-19T13:53:17;0.52;;;0.40;;
42000;SDS011;27689;48.390;10.856;2023-11-19T13:56:01;0.82;;;0.60;;
42000;SDS011;27689;48.390;10.856;2023-11-19T13:58:45;1.83;;;1.00;;
42000;SDS011;27689;48.390;10.856;2023-11-19T14:01:29;1.35;;;0.50;;
42000;SDS011;27689;48.390;10.856;2023-11-19T14:04:14;1.98;;;1.15;;
42000;SDS011;27689;48.390;10.856;2023-11-19T14:06:58;0.67;;;0.40;;
42000;SDS011;27689;48.390;10.856;2023-11-19T14:09:42;0.50;;;0.50;;
42000;SDS011;27689;48.390;10.856;2023-11-19T14:12:26;0.77;;;0.50;;
42000;SDS011;27689;48.390;10.856;2023-11-19T14:15:10;0.60;;;0.50;;
42000;SDS011;27689;48.390;10.856;2023-11-19T14:17:56;1.30;;;0.50;;
42000;SDS011;27689;48.390;10.856;2023-11-19T14:20:40;1.60;;;0.60;;
42000;SDS011;27689;48.390;10.856;2023-11-19T14:23:24;0.75;;;0.50;;
42000;SDS011;27689;48.390;10.856;2023-11-19T14:26:09;0.65;;;0.50;;
42000;SDS011;27689;48.390;10.856;2023-11-19T14:28:53;0.55;;;0.35;;
42000;SDS011;27689;48.390;10.856;2023-11-19T14:31:37;0.50;;;0.45;;
42000;SDS011;27689;48.390;10.856;2023-11-19T14:34:22;2.40;;;0.60;;
42000;SDS011;27689;48.390;10.856;2023-11-19T14:37:06;0.50;;;0.40;;
42000;SDS011;27689;48.390;10.856;2023-11-19T14:39:50;1.00;;;0.70;;
42000;SDS011;27689;48.390;10.856;2023-11-19T14:42:37;1.50;;;0.40;;
42000;SDS011;27689;48.390;10.856;2023-11-19T14:45:22;0.65;;;0.40;;
42000;SDS011;27689;48.390;10.856;2023-11-19T14:48:06;2.80;;;0.50;;
42000;SDS011;27689;48.390;10.856;2023-11-19T14:50:50;0.43;;;0.43;;
42000;SDS011;27689;48.390;10.856;2023-11-19T14:53:35;0.38;;;0.30;;
42000;SDS011;27689;48.390;10.856;2023-11-19T14:56:19;0.38;;;0.30;;
42000;SDS011;27689;48.390;10.856;2023-11-19T14:59:03;0.93;;;0.50;;
42000;SDS011;27689;48.390;10.856;2023-11-19T15:01:47;0.40;;;0.40;;
42000;SDS011;27689;48.390;10.856;2023-11-19T15:04:31;0.88;;;0.47;;
42000;SDS011;27689;48.390;10.856;2023-11-19T15:07:15;0.90;;;0.50;;
42000;SDS011;27689;48.390;10.856;2023-11-19T15:09:59;0.60;;;0.40;;
42000;SDS011;27689;48.390;10.856;2023-11-19T15:15:29;2.80;;;0.50;;
42000;SDS011;27689;48.390;10.856;2023-11-19T15:18:13;1.33;;;0.43;;
42000;SDS011;27689;48.390;10.856;2023-11-19T15:20:57;3.50;;;0.60;;
42000;SDS011;27689;48.390;10.856;2023-11-19T15:23:41;0.63;;;0.43;;
42000;SDS011;27689;48.390;10.856;2023-11-19T15:26:25;0.30;;;0.25;;
42000;SDS011;27689;48.390;10.856;2023-11-19T15:29:09;1.70;;;0.50;;
42000;SDS011;27689;48.390;10.856;2023-11-19T15:31:53;2.95;;;1.38;;
42000;SDS011;27689;48.390;10.856;2023-11-19T15:34:37;16.70;;;6.80;;
42000;SDS011;27689;48.390;10.856;2023-11-19T15:37:21;4.63;;;1.88;;
42000;SDS011;27689;48.390;10.856;2023-11-19T15:40:06;2.13;;;0.67;;
42000;SDS011;27689;48.390;10.856;2023-11-19T15:42:51;0.65;;;0.55;;
42000;SDS011;27689;48.390;10.856;2023-11-19T15:45:37;0.85;;;0.45;;
42000;SDS011;27689;48.390;10.856;2023-11-19T15:48:23;1.05;;;0.43;;
42000;SDS011;27689;48.390;10.856;2023-11-19T15:53:52;1.05;;;0.60;;
42000;SDS011;27689;48.390;10.856;2023-11-19T15:56:36;0.50;;;0.47;;
42000;SDS011;27689;48.390;10.856;2023-11-19T15:59:20;1.23;;;0.60;;
42000;SDS011;27689;48.390;10.856;2023-11-19T16:02:04;1.08;;;0.73;;
42000;SDS011;27689;48.390;10.856;2023-11-19T16:04:49;2.03;;;0.90;;
42000;SDS011;27689;48.390;10.856;2023-11-19T16:10:18;1.85;;;0.70;;
42000;SDS011;27689;48.390;10.856;2023-11-19T16:15:47;2.45;;;1.08;;
42000;SDS011;27689;48.390;10.856;2023-11-19T16:18:31;0.80;;;0.80;;
42000;SDS011;27689;48.390;10.856;2023-11-19T16:24:00;1.23;;;0.70;;
42000;SDS011;27689;48.390;10.856;2023-11-19T16:26:46;2.25;;;2.05;;
42000;SDS011;27689;48.390;10.856;2023-11-19T16:29:30;1.05;;;0.77;;
42000;SDS011;27689;48.390;10.856;2023-11-19T16:32:13;1.55;;;0.73;;
42000;SDS011;27689;48.390;10.856;2023-11-19T16:34:57;1.65;;;0.80;;
42000;SDS011;27689;48.390;10.856;2023-11-19T16:37:41;2.67;;;0.85;;
42000;SDS011;27689;48.390;10.856;2023-11-19T16:40:25;0.55;;;0.47;;
42000;SDS011;27689;48.390;10.856;2023-11-19T16:43:09;1.45;;;0.70;;
42000;SDS011;27689;48.390;10.856;2023-11-19T16:45:54;0.90;;;0.60;;
42000;SDS011;27689;48.390;10.856;2023-11-19T16:48:38;2.10;;;0.60;;
42000;SDS011;27689;48.390;10.856;2023-11-19T16:51:22;1.55;;;0.98;;
42000;SDS011;27689;48.390;10.856;2023-11-19T16:54:06;1.92;;;0.80;;
42000;SDS011;27689;48.390;10.856;2023-11-19T16:56:50;0.90;;;0.75;;
42000;SDS011;27689;48.390;10.856;2023-11-19T16:59:34;3.00;;;0.80;;
42000;SDS011;27689;48.390;10.856;2023-11-19T17:02:18;1.73;;;0.80;;
42000;SDS011;27689;48.390;10.856;2023-11-19T17:05:03;2.08;;;0.80;;
42000;SDS011;27689;48.390;10.856;2023-11-19T17:07:47;1.48;;;0.93;;
42000;SDS011;27689;48.390;10.856;2023-11-19T17:10:31;0.83;;;0.60;;